Time;durP1;ratioP1;P1;durP2;ratioP2;P2;SDS_P1;SDS_P2;PMS_P1;PMS_P2;Temp;Humidity;BMP_temperature;BMP_pressure;BME280_temperature;BME280_humidity;BME280_pressure;Samples;Min_cycle;Max_cycle;Signal;HPM_P1;HPM_P2
2023/10/01 00:00:05;;;;;;;;;16.25;11.75;;;;;-143.00;100.00;60422.56;5117555;27;45304;-60
2023/10/01 00:02:32;;;;;;;;;16.00;15.00;;;;;-143.00;100.00;60422.56;5117459;27;45376;-60
2023/10/01 00:04:57;;;;;;;;;18.75;16.00;;;;;-143.00;100.00;60422.56;5117109;27;46706;-60
2023/10/01 00:07:23;;;;;;;;;13.50;13.25;;;;;-143.00;100.00;60422.56;5098499;27;45479;-60
2023/10/01 00:09:48;;;;;;;;;13.00;11.25;;;;;-143.00;100.00;60422.56;5098445;27;45484;-60
2023/10/01 00:12:14;;;;;;;;;16.75;15.00;;;;;-143.00;100.00;60422.56;5117338;27;45398;-60
2023/10/01 00:14:39;;;;;;;;;15.75;11.25;;;;;-143.00;100.00;60422.56;5117148;27;46390;-60
2023/10/01 00:17:05;;;;;;;;;11.25;10.00;;;;;-143.00;100.00;60422.56;5116970;27;45499;-60
2023/10/01 00:19:30;;;;;;;;;8.00;8.00;;;;;-143.00;100.00;60422.56;5117488;27;45501;-60
2023/10/01 00:21:55;;;;;;;;;16.50;13.25;;;;;-143.00;100.00;60422.56;5112474;27;45491;-60
2023/10/01 00:24:21;;;;;;;;;14.50;12.00;;;;;-143.00;100.00;60422.56;5095539;27;45503;-60
2023/10/01 00:26:46;;;;;;;;;11.75;11.25;;;;;-143.00;100.00;60422.56;5095632;27;45408;-60
2023/10/01 00:29:11;;;;;;;;;14.00;12.25;;;;;-143.00;100.00;60422.56;5095900;27;45441;-60
2023/10/01 00:31:37;;;;;;;;;13.00;11.00;;;;;-143.00;100.00;60422.56;5095962;27;45525;-60
2023/10/01 00:34:03;;;;;;;;;13.00;11.50;;;;;-143.00;100.00;60422.56;5106232;27;45872;-60
2023/10/01 00:36:29;;;;;;;;;14.00;10.75;;;;;-143.00;100.00;60422.56;5098153;27;45628;-60
2023/10/01 00:38:54;;;;;;;;;9.00;9.00;;;;;-143.00;100.00;60422.56;5116301;27;45514;-60
2023/10/01 00:41:20;;;;;;;;;8.00;8.00;;;;;-143.00;100.00;60422.56;5116818;27;45425;-60
2023/10/01 00:43:45;;;;;;;;;9.75;9.75;;;;;-143.00;100.00;60422.56;5116525;27;45609;-61
2023/10/01 00:46:11;;;;;;;;;12.00;12.00;;;;;-143.00;100.00;60422.56;5115537;27;45319;-60
2023/10/01 00:48:37;;;;;;;;;8.50;7.50;;;;;-143.00;100.00;60422.56;5116174;27;45375;-60
2023/10/01 00:51:04;;;;;;;;;12.25;11.00;;;;;-143.00;100.00;60422.56;5116158;27;45509;-60
2023/10/01 00:53:31;;;;;;;;;10.25;9.00;;;;;-143.00;100.00;60422.56;5116049;27;46370;-60
2023/10/01 00:55:59;;;;;;;;;10.40;10.40;;;;;-143.00;100.00;60422.56;5116088;27;45477;-61
2023/10/01 00:58:25;;;;;;;;;11.50;9.00;;;;;-143.00;100.00;60422.56;5116650;27;45472;-60
2023/10/01 01:00:52;;;;;;;;;7.00;6.25;;;;;-143.00;100.00;60422.56;5116275;27;45376;-60
2023/10/01 01:03:19;;;;;;;;;14.00;10.75;;;;;-143.00;100.00;60422.56;5097897;27;45416;-60
2023/10/01 01:08:46;;;;;;;;;12.50;10.50;;;;;-143.00;100.00;60422.56;5115905;27;45450;-60
2023/10/01 01:11:15;;;;;;;;;13.75;9.75;;;;;-143.00;100.00;60422.56;5116442;27;45354;-60
2023/10/01 01:13:43;;;;;;;;;8.75;8.25;;;;;-143.00;100.00;60422.56;5116162;27;45456;-61
2023/10/01 01:16:10;;;;;;;;;16.00;11.00;;;;;-143.00;100.00;60422.56;5116198;27;45305;-60
2023/10/01 01:18:36;;;;;;;;;14.00;11.75;;;;;-143.00;100.00;60422.56;5115984;27;45416;-60
2023/10/01 01:21:09;;;;;;;;;9.00;8.25;;;;;-143.00;100.00;60422.56;5115479;27;45460;-61
2023/10/01 01:23:35;;;;;;;;;12.25;9.00;;;;;-143.00;100.00;60422.56;5096482;27;46379;-60
2023/10/01 01:26:00;;;;;;;;;14.25;11.50;;;;;-143.00;100.00;60422.56;5094983;27;45426;-60
2023/10/01 01:28:32;;;;;;;;;11.50;11.00;;;;;-143.00;100.00;60422.56;5095340;27;45469;-61
2023/10/01 01:30:59;;;;;;;;;11.00;9.00;;;;;-143.00;100.00;60422.56;5094639;27;45523;-60
2023/10/01 01:33:32;;;;;;;;;12.40;11.60;;;;;-143.00;100.00;60422.56;5099911;27;46501;-60
2023/10/01 01:36:03;;;;;;;;;14.20;10.80;;;;;-143.00;100.00;60422.56;5115879;27;45369;-60
2023/10/01 01:38:31;;;;;;;;;12.00;10.40;;;;;-143.00;100.00;60422.56;5116173;27;45450;-60
2023/10/01 01:40:57;;;;;;;;;14.75;12.50;;;;;-143.00;100.00;60422.56;5115690;27;45442;-60
2023/10/01 01:43:22;;;;;;;;;11.00;10.00;;;;;-143.00;100.00;60422.56;5115861;27;46422;-60
2023/10/01 01:45:55;;;;;;;;;10.25;10.25;;;;;-143.00;100.00;60422.56;5115550;27;45372;-60
2023/10/01 01:48:30;;;;;;;;;13.00;11.75;;;;;-143.00;100.00;60422.56;5116063;27;45410;-60
2023/10/01 01:50:57;;;;;;;;;11.75;8.50;;;;;-143.00;100.00;60422.56;5115757;27;45430;-60
2023/10/01 01:53:26;;;;;;;;;11.25;8.50;;;;;-143.00;100.00;60422.56;5096752;27;46997;-61
2023/10/01 01:55:54;;;;;;;;;14.60;12.40;;;;;-143.00;100.00;60422.56;5115618;27;45410;-60
2023/10/01 01:58:24;;;;;;;;;15.00;11.60;;;;;-143.00;100.00;60422.56;5100618;27;45451;-60
2023/10/01 02:01:09;;;;;;;;;13.00;11.00;;;;;-143.00;100.00;60422.56;5119223;27;45551;-60
2023/10/01 02:03:39;;;;;;;;;12.60;11.20;;;;;-143.00;100.00;60422.56;5119076;27;45451;-60
2023/10/01 02:06:06;;;;;;;;;15.40;11.00;;;;;-143.00;100.00;60422.56;5118616;27;45522;-61
2023/10/01 02:08:44;;;;;;;;;14.75;11.50;;;;;-143.00;100.00;60422.56;5118377;27;45368;-60
2023/10/01 02:11:10;;;;;;;;;5.75;5.25;;;;;-143.00;100.00;60422.56;5100665;27;45415;-60
2023/10/01 02:13:41;;;;;;;;;8.50;8.50;;;;;-143.00;100.00;60422.56;5118598;27;45445;-60
2023/10/01 02:16:19;;;;;;;;;16.40;14.40;;;;;-143.00;100.00;60422.56;5118058;27;45446;-60
2023/10/01 02:18:56;;;;;;;;;14.75;12.00;;;;;-143.00;100.00;60422.56;5100508;27;45503;-60
2023/10/01 02:21:43;;;;;;;;;15.50;12.25;;;;;-143.00;100.00;60422.56;5100356;27;45632;-60
2023/10/01 02:24:14;;;;;;;;;8.40;7.20;;;;;-143.00;100.00;60422.56;5077903;28;45498;-60
2023/10/01 02:26:46;;;;;;;;;15.20;9.80;;;;;-143.00;100.00;60422.56;5077910;28;45452;-61
2023/10/01 02:29:13;;;;;;;;;12.20;10.40;;;;;-143.00;100.00;60422.56;5077533;28;45420;-60
2023/10/01 02:31:39;;;;;;;;;12.75;11.00;;;;;-143.00;100.00;60422.56;5077854;28;45491;-60
2023/10/01 02:34:08;;;;;;;;;13.75;12.00;;;;;-143.00;100.00;60422.56;5098886;27;46409;-60
2023/10/01 02:36:42;;;;;;;;;12.20;12.20;;;;;-143.00;100.00;60422.56;5100039;27;45477;-60
2023/10/01 02:39:19;;;;;;;;;11.25;11.00;;;;;-143.00;100.00;60422.56;5118491;27;45420;-60
2023/10/01 02:42:04;;;;;;;;;16.25;14.00;;;;;-143.00;100.00;60422.56;5118600;27;45484;-60
2023/10/01 02:44:31;;;;;;;;;9.80;8.60;;;;;-143.00;100.00;60422.56;5118405;27;45485;-60
2023/10/01 02:47:09;;;;;;;;;13.60;11.20;;;;;-143.00;100.00;60422.56;5118657;27;45373;-60
2023/10/01 02:49:47;;;;;;;;;13.00;12.75;;;;;-143.00;100.00;60422.56;5117980;27;45483;-60
2023/10/01 02:52:13;;;;;;;;;14.75;13.00;;;;;-143.00;100.00;60422.56;5117821;27;45395;-60
2023/10/01 02:54:38;;;;;;;;;14.75;13.00;;;;;-143.00;100.00;60422.56;5117713;27;46552;-60
2023/10/01 02:57:13;;;;;;;;;11.75;11.75;;;;;-143.00;100.00;60422.56;5118153;27;45438;-60
2023/10/01 03:02:30;;;;;;;;;14.00;11.00;;;;;-143.00;100.00;60422.56;5118073;27;45489;-60
2023/10/01 03:05:01;;;;;;;;;11.50;11.00;;;;;-143.00;100.00;60422.56;5116064;27;46357;-60
2023/10/01 03:07:33;;;;;;;;;12.00;11.00;;;;;-143.00;100.00;60422.56;5117450;27;45398;-60
2023/10/01 03:10:00;;;;;;;;;17.50;14.00;;;;;-143.00;100.00;60422.56;5115977;27;45402;-60
2023/10/01 03:12:35;;;;;;;;;9.75;9.25;;;;;-143.00;100.00;60422.56;5117817;27;45431;-60
2023/10/01 03:15:23;;;;;;;;;11.80;10.80;;;;;-143.00;100.00;60422.56;5117447;27;47252;-60
2023/10/01 03:17:56;;;;;;;;;11.00;11.00;;;;;-143.00;100.00;60422.56;5117468;27;45429;-60
2023/10/01 03:23:12;;;;;;;;;11.75;10.25;;;;;-143.00;100.00;60422.56;5102494;27;45419;-60
2023/10/01 03:25:49;;;;;;;;;13.00;12.00;;;;;-143.00;100.00;60422.56;5097266;27;46464;-60
2023/10/01 03:28:27;;;;;;;;;9.00;8.80;;;;;-143.00;100.00;60422.56;5097644;27;45484;-60
2023/10/01 03:31:06;;;;;;;;;3.50;3.00;;;;;-143.00;100.00;60422.56;5097469;27;45392;-60
2023/10/01 03:33:33;;;;;;;;;11.75;9.25;;;;;-143.00;100.00;60422.56;5102961;27;45466;-60
2023/10/01 03:35:58;;;;;;;;;17.00;12.00;;;;;-143.00;100.00;60422.56;5117581;27;46623;-60
2023/10/01 03:38:27;;;;;;;;;11.00;10.00;;;;;-143.00;100.00;60422.56;5117396;27;45387;-60
2023/10/01 03:41:00;;;;;;;;;16.50;14.50;;;;;-143.00;100.00;60422.56;5098855;27;45380;-60
2023/10/01 03:43:32;;;;;;;;;12.50;12.50;;;;;-143.00;100.00;60422.56;5117501;27;45372;-60
2023/10/01 03:49:00;;;;;;;;;11.60;10.80;;;;;-143.00;100.00;60422.56;5117542;27;45485;-60
2023/10/01 03:54:23;;;;;;;;;15.50;11.50;;;;;-143.00;100.00;60422.56;5117005;27;45336;-60
2023/10/01 03:56:57;;;;;;;;;16.75;15.75;;;;;-143.00;100.00;60422.56;5116010;27;47066;-60
2023/10/01 03:59:28;;;;;;;;;15.20;10.80;;;;;-143.00;100.00;60422.56;5117639;27;45378;-61
2023/10/01 04:02:00;;;;;;;;;12.75;11.75;;;;;-143.00;100.00;60422.56;5117544;27;45387;-60
2023/10/01 04:04:31;;;;;;;;;12.50;12.00;;;;;-143.00;100.00;60422.56;5117689;27;45452;-60
2023/10/01 04:07:00;;;;;;;;;14.00;12.75;;;;;-143.00;100.00;60422.56;5117107;27;45433;-60
2023/10/01 04:09:28;;;;;;;;;15.20;10.40;;;;;-143.00;100.00;60422.56;5116649;27;45473;-60
2023/10/01 04:12:18;;;;;;;;;14.50;9.25;;;;;-143.00;100.00;60422.56;5099017;27;45434;-60
2023/10/01 04:14:49;;;;;;;;;12.00;11.00;;;;;-143.00;100.00;60422.56;5116994;27;45331;-60
2023/10/01 04:17:25;;;;;;;;;17.00;14.25;;;;;-143.00;100.00;60422.56;5116888;27;45406;-60
2023/10/01 04:20:00;;;;;;;;;9.00;6.80;;;;;-143.00;100.00;60422.56;5116204;27;45406;-60
2023/10/01 04:22:28;;;;;;;;;18.75;15.00;;;;;-143.00;100.00;60422.56;5107753;27;45382;-60
2023/10/01 04:27:51;;;;;;;;;14.00;12.75;;;;;-143.00;100.00;60422.56;5072486;27;46718;-60
2023/10/01 04:30:16;;;;;;;;;16.00;14.00;;;;;-143.00;100.00;60422.56;5096344;27;45463;-60
2023/10/01 04:32:42;;;;;;;;;14.25;11.50;;;;;-143.00;100.00;60422.56;5096852;27;45915;-60
2023/10/01 04:35:17;;;;;;;;;11.50;8.50;;;;;-143.00;100.00;60422.56;5115537;27;45726;-60
2023/10/01 04:37:43;;;;;;;;;12.75;10.75;;;;;-143.00;100.00;60422.56;5116127;27;46095;-62
2023/10/01 04:40:31;;;;;;;;;13.80;12.00;;;;;-143.00;100.00;60422.56;5116446;27;45502;-60
2023/10/01 04:43:08;;;;;;;;;17.50;15.50;;;;;-143.00;100.00;60422.56;5116203;27;45514;-61
2023/10/01 04:45:40;;;;;;;;;16.00;14.50;;;;;-143.00;100.00;60422.56;5116321;27;45374;-60
2023/10/01 04:48:16;;;;;;;;;12.75;12.50;;;;;-143.00;100.00;60422.56;5097676;27;47348;-60
2023/10/01 04:50:43;;;;;;;;;17.20;16.20;;;;;-143.00;100.00;60422.56;5116123;27;45348;-60
2023/10/01 04:53:13;;;;;;;;;15.75;14.25;;;;;-143.00;100.00;60422.56;5116056;27;45325;-60
2023/10/01 04:55:41;;;;;;;;;17.75;12.75;;;;;-143.00;100.00;60422.56;5097755;27;45391;-60
2023/10/01 04:58:14;;;;;;;;;12.00;11.25;;;;;-143.00;100.00;60422.56;5116490;27;46690;-60
2023/10/01 05:00:46;;;;;;;;;12.60;11.60;;;;;-143.00;100.00;60422.56;5116617;27;45417;-60
2023/10/01 05:03:15;;;;;;;;;15.00;13.50;;;;;-143.00;100.00;60422.56;5116641;27;45447;-61
2023/10/01 05:05:44;;;;;;;;;17.75;15.00;;;;;-143.00;100.00;60422.56;5116646;27;45383;-60
2023/10/01 05:08:13;;;;;;;;;20.00;15.50;;;;;-143.00;100.00;60422.56;5116114;27;46370;-60
2023/10/01 05:10:51;;;;;;;;;14.50;12.75;;;;;-143.00;100.00;60422.56;5116543;27;45411;-60
2023/10/01 05:13:22;;;;;;;;;12.75;12.75;;;;;-143.00;100.00;60422.56;5116114;27;45398;-60
2023/10/01 05:15:49;;;;;;;;;12.75;12.75;;;;;-143.00;100.00;60422.56;5116202;27;45492;-60
2023/10/01 05:18:16;;;;;;;;;18.00;14.00;;;;;-143.00;100.00;60422.56;5115989;27;46082;-60
2023/10/01 05:20:42;;;;;;;;;10.75;10.75;;;;;-143.00;100.00;60422.56;5115920;27;45406;-60
2023/10/01 05:23:07;;;;;;;;;15.75;14.25;;;;;-143.00;100.00;60422.56;5078993;27;45393;-60
2023/10/01 05:25:32;;;;;;;;;14.25;12.00;;;;;-143.00;100.00;60422.56;5075132;28;45374;-60
2023/10/01 05:28:00;;;;;;;;;15.75;11.25;;;;;-143.00;100.00;60422.56;5074944;28;45604;-60
2023/10/01 05:30:36;;;;;;;;;14.50;13.50;;;;;-143.00;100.00;60422.56;5075064;28;45438;-60
2023/10/01 05:33:11;;;;;;;;;21.25;15.75;;;;;-143.00;100.00;60422.56;5078237;27;45546;-60
2023/10/01 05:35:44;;;;;;;;;16.25;13.25;;;;;-143.00;100.00;60422.56;5115671;27;45411;-60
2023/10/01 05:38:14;;;;;;;;;14.75;13.50;;;;;-143.00;100.00;60422.56;5115508;27;45547;-60
2023/10/01 05:40:40;;;;;;;;;11.00;10.50;;;;;-143.00;100.00;60422.56;5097217;27;45338;-60
2023/10/01 05:43:13;;;;;;;;;19.50;17.50;;;;;-143.00;100.00;60422.56;5116218;27;45360;-60
2023/10/01 05:45:41;;;;;;;;;17.50;14.50;;;;;-143.00;100.00;60422.56;5115874;27;45407;-60
2023/10/01 05:48:10;;;;;;;;;17.00;14.50;;;;;-143.00;100.00;60422.56;5115240;27;47238;-60
2023/10/01 05:50:38;;;;;;;;;17.40;15.40;;;;;-143.00;100.00;60422.56;5115668;27;45526;-60
2023/10/01 05:53:04;;;;;;;;;18.25;17.00;;;;;-143.00;100.00;60422.56;5115619;27;45344;-60
2023/10/01 05:55:34;;;;;;;;;17.25;17.25;;;;;-143.00;100.00;60422.56;5097175;27;45630;-61
2023/10/01 05:58:12;;;;;;;;;13.75;13.25;;;;;-143.00;100.00;60422.56;5115152;27;45698;-60
2023/10/01 06:00:45;;;;;;;;;16.25;14.25;;;;;-143.00;100.00;60422.56;5115443;27;45368;-60
2023/10/01 06:03:13;;;;;;;;;16.75;15.00;;;;;-143.00;100.00;60422.56;5115716;27;45434;-60
2023/10/01 06:08:14;;;;;;;;;13.50;13.25;;;;;-143.00;100.00;60422.56;5114951;27;45332;-60
2023/10/01 06:10:59;;;;;;;;;14.75;14.50;;;;;-143.00;100.00;60422.56;5096628;27;45433;-60
2023/10/01 06:13:30;;;;;;;;;15.75;15.75;;;;;-143.00;100.00;60422.56;5115479;27;45494;-60
2023/10/01 06:16:49;;;;;;;;;12.00;10.75;;;;;-143.00;100.00;60422.56;5115074;27;45386;-60
2023/10/01 06:18:52;;;;;;;;;13.75;13.75;;;;;-143.00;100.00;60422.56;5103493;27;46037;-60
2023/10/01 06:21:25;;;;;;;;;17.00;15.75;;;;;-143.00;100.00;60422.56;5114779;27;45404;-60
2023/10/01 06:23:52;;;;;;;;;16.75;14.00;;;;;-143.00;100.00;60422.56;5073819;28;45407;-60
2023/10/01 06:26:29;;;;;;;;;13.75;13.75;;;;;-143.00;100.00;60422.56;5073421;28;45510;-59
2023/10/01 06:28:56;;;;;;;;;12.50;11.50;;;;;-143.00;100.00;60422.56;5073673;28;45650;-60
2023/10/01 06:31:23;;;;;;;;;14.40;13.00;;;;;-143.00;100.00;60422.56;5073884;28;45334;-60
2023/10/01 06:33:53;;;;;;;;;14.25;14.00;;;;;-143.00;100.00;60422.56;5090880;27;45545;-60
2023/10/01 06:36:23;;;;;;;;;14.75;12.00;;;;;-143.00;100.00;60422.56;5114872;27;45419;-60
2023/10/01 06:38:49;;;;;;;;;12.00;10.25;;;;;-143.00;100.00;60422.56;5096119;27;46753;-60
2023/10/01 06:41:16;;;;;;;;;16.80;12.60;;;;;-143.00;100.00;60422.56;5114435;27;45420;-60
2023/10/01 06:43:54;;;;;;;;;17.50;12.75;;;;;-143.00;100.00;60422.56;5114798;27;45424;-60
2023/10/01 06:46:29;;;;;;;;;15.25;14.75;;;;;-143.00;100.00;60422.56;5099579;27;45371;-60
2023/10/01 06:48:58;;;;;;;;;15.50;12.25;;;;;-143.00;100.00;60422.56;5099831;27;46318;-60
2023/10/01 06:51:24;;;;;;;;;21.40;15.40;;;;;-143.00;100.00;60422.56;5118268;27;45375;-60
2023/10/01 06:53:58;;;;;;;;;17.25;13.75;;;;;-143.00;100.00;60422.56;5118208;27;45447;-61
2023/10/01 06:56:29;;;;;;;;;16.50;11.75;;;;;-143.00;100.00;60422.56;5117905;27;45411;-60
2023/10/01 07:01:47;;;;;;;;;18.20;15.60;;;;;-143.00;100.00;60422.56;5117866;27;45314;-60
2023/10/01 07:04:15;;;;;;;;;19.50;17.00;;;;;-143.00;100.00;60422.56;5117901;27;45377;-60
2023/10/01 07:06:44;;;;;;;;;20.50;19.25;;;;;-143.00;100.00;60422.56;5117922;27;45308;-60
2023/10/01 07:09:24;;;;;;;;;18.75;18.75;;;;;-143.00;100.00;60422.56;5117753;27;45461;-61
2023/10/01 07:11:56;;;;;;;;;25.25;21.25;;;;;-143.00;100.00;60422.56;5118459;27;45439;-61
2023/10/01 07:14:30;;;;;;;;;21.50;17.75;;;;;-143.00;100.00;60422.56;5118350;27;45435;-61
2023/10/01 07:16:57;;;;;;;;;20.00;17.50;;;;;-143.00;100.00;60422.56;5117354;27;46336;-61
2023/10/01 07:19:23;;;;;;;;;17.75;17.50;;;;;-143.00;100.00;60422.56;5117596;27;45426;-62
2023/10/01 07:21:56;;;;;;;;;22.00;17.25;;;;;-143.00;100.00;60422.56;5113576;27;45432;-61
2023/10/01 07:24:23;;;;;;;;;20.25;16.75;;;;;-143.00;100.00;60422.56;5096379;27;45458;-61
2023/10/01 07:26:50;;;;;;;;;16.75;14.75;;;;;-143.00;100.00;60422.56;5078479;27;45535;-61
2023/10/01 07:29:16;;;;;;;;;23.50;15.00;;;;;-143.00;100.00;60422.56;5096077;27;45620;-61
2023/10/01 07:31:43;;;;;;;;;17.00;14.40;;;;;-143.00;100.00;60422.56;5096479;27;45401;-61
2023/10/01 07:34:16;;;;;;;;;15.50;15.25;;;;;-143.00;100.00;60422.56;5089688;27;45329;-61
2023/10/01 07:36:42;;;;;;;;;16.50;13.50;;;;;-143.00;100.00;60422.56;5117473;27;45386;-61
2023/10/01 07:39:09;;;;;;;;;15.25;13.50;;;;;-143.00;100.00;60422.56;5117090;27;46072;-61
2023/10/01 07:41:38;;;;;;;;;13.00;12.80;;;;;-143.00;100.00;60422.56;5117223;27;45435;-61
2023/10/01 07:44:08;;;;;;;;;13.50;12.00;;;;;-143.00;100.00;60422.56;5117805;27;45442;-61
2023/10/01 07:46:36;;;;;;;;;12.00;11.25;;;;;-143.00;100.00;60422.56;5116904;27;45613;-61
2023/10/01 07:49:03;;;;;;;;;14.00;13.00;;;;;-143.00;100.00;60422.56;5117045;27;45439;-61
2023/10/01 07:51:35;;;;;;;;;15.00;11.60;;;;;-143.00;100.00;60422.56;5117163;27;45492;-61
2023/10/01 07:54:09;;;;;;;;;11.60;8.60;;;;;-143.00;100.00;60422.56;5116517;27;45423;-61
2023/10/01 07:56:36;;;;;;;;;12.50;10.50;;;;;-143.00;100.00;60422.56;5116404;27;45439;-61
2023/10/01 08:01:46;;;;;;;;;13.80;9.40;;;;;-143.00;100.00;60422.56;5116156;27;45359;-61
2023/10/01 08:07:03;;;;;;;;;15.50;13.75;;;;;-143.00;100.00;60422.56;5116282;27;45399;-62
2023/10/01 08:09:31;;;;;;;;;13.25;13.00;;;;;-143.00;100.00;60422.56;5116747;27;45437;-61
2023/10/01 08:12:05;;;;;;;;;12.60;12.60;;;;;-143.00;100.00;60422.56;5116971;27;45419;-61
2023/10/01 08:14:33;;;;;;;;;13.80;12.20;;;;;-143.00;100.00;60422.56;5116841;27;45429;-61
2023/10/01 08:17:02;;;;;;;;;13.00;11.50;;;;;-143.00;100.00;60422.56;5116529;27;45457;-61
2023/10/01 08:19:43;;;;;;;;;15.80;12.80;;;;;-143.00;100.00;60422.56;5116563;27;46176;-61
2023/10/01 08:22:22;;;;;;;;;12.00;11.80;;;;;-143.00;100.00;60422.56;5109895;27;45417;-62
2023/10/01 08:24:49;;;;;;;;;14.25;10.25;;;;;-143.00;100.00;60422.56;5077514;27;45340;-61
2023/10/01 08:27:29;;;;;;;;;12.25;9.00;;;;;-143.00;100.00;60422.56;5095885;27;45311;-62
2023/10/01 08:32:49;;;;;;;;;13.00;11.40;;;;;-143.00;100.00;60422.56;5095542;27;45357;-62
2023/10/01 08:35:32;;;;;;;;;12.40;11.00;;;;;-143.00;100.00;60422.56;5116237;27;45349;-62
2023/10/01 08:37:59;;;;;;;;;6.75;6.75;;;;;-143.00;100.00;60422.56;5115950;27;45516;-61
2023/10/01 08:40:27;;;;;;;;;12.80;11.00;;;;;-143.00;100.00;60422.56;5115892;27;45517;-61
2023/10/01 08:42:53;;;;;;;;;15.00;11.00;;;;;-143.00;100.00;60422.56;5115880;27;45355;-61
2023/10/01 08:45:34;;;;;;;;;11.40;10.20;;;;;-143.00;100.00;60422.56;5116186;27;45278;-62
2023/10/01 08:48:01;;;;;;;;;18.25;15.50;;;;;-143.00;100.00;60422.56;5115967;27;45408;-61
2023/10/01 08:50:27;;;;;;;;;14.00;12.00;;;;;-143.00;100.00;60422.56;5115843;27;45981;-61
2023/10/01 08:53:10;;;;;;;;;18.25;16.75;;;;;-143.00;100.00;60422.56;5115702;27;45399;-61
2023/10/01 08:55:40;;;;;;;;;11.60;10.80;;;;;-143.00;100.00;60422.56;5115933;27;45386;-61
2023/10/01 08:58:25;;;;;;;;;12.80;11.00;;;;;-143.00;100.00;60422.56;5115524;27;45408;-62
2023/10/01 09:00:56;;;;;;;;;14.00;12.60;;;;;-143.00;100.00;60422.56;5115883;27;45491;-61
2023/10/01 09:03:34;;;;;;;;;13.60;13.00;;;;;-143.00;100.00;60422.56;5097124;27;45386;-62
2023/10/01 09:06:03;;;;;;;;;14.20;13.20;;;;;-143.00;100.00;60422.56;5114969;27;45619;-61
2023/10/01 09:08:32;;;;;;;;;14.75;11.50;;;;;-143.00;100.00;60422.56;5115216;27;45568;-61
2023/10/01 09:11:11;;;;;;;;;14.80;10.80;;;;;-143.00;100.00;60422.56;5115401;27;45441;-61
2023/10/01 09:16:45;;;;;;;;;13.60;11.80;;;;;-143.00;100.00;60422.56;5115608;27;45439;-62
2023/10/01 09:19:35;;;;;;;;;12.50;10.50;;;;;-143.00;100.00;60422.56;5114666;27;45523;-60
2023/10/01 09:22:07;;;;;;;;;11.75;10.75;;;;;-143.00;100.00;60422.56;5108912;27;45422;-59
2023/10/01 09:24:39;;;;;;;;;15.80;12.20;;;;;-143.00;100.00;60422.56;5094278;27;45510;-59
2023/10/01 09:27:19;;;;;;;;;13.80;11.60;;;;;-143.00;100.00;60422.56;5094549;27;45409;-60
2023/10/01 09:29:48;;;;;;;;;15.00;13.75;;;;;-143.00;100.00;60422.56;5076160;27;45587;-60
2023/10/01 09:32:14;;;;;;;;;9.20;9.20;;;;;-143.00;100.00;60422.56;5094582;27;46334;-60
2023/10/01 09:34:53;;;;;;;;;14.40;11.00;;;;;-143.00;100.00;60422.56;5094847;27;45361;-60
2023/10/01 09:37:35;;;;;;;;;13.40;10.40;;;;;-143.00;100.00;60422.56;5094488;27;45492;-60
2023/10/01 09:40:32;;;;;;;;;15.75;14.75;;;;;-143.00;100.00;60422.56;5094986;27;45361;-61
2023/10/01 09:42:56;;;;;;;;;17.00;15.80;;;;;-143.00;100.00;60422.56;5093509;27;45479;-60
2023/10/01 09:45:26;;;;;;;;;16.20;12.60;;;;;-143.00;100.00;60422.56;5094447;27;45414;-60
2023/10/01 09:48:28;;;;;;;;;13.60;12.20;;;;;-143.00;100.00;60422.56;5076235;27;45436;-61
2023/10/01 09:51:03;;;;;;;;;12.80;10.60;;;;;-143.00;100.00;60422.56;5094162;27;45392;-60
2023/10/01 09:53:40;;;;;;;;;9.60;9.00;;;;;-143.00;100.00;60422.56;5094083;27;46241;-60
2023/10/01 09:58:34;;;;;;;;;11.00;10.50;;;;;-143.00;100.00;60422.56;5089115;27;66674;-60
2023/10/01 10:01:08;;;;;;;;;14.50;13.50;;;;;-143.00;100.00;60422.56;5075270;27;45631;-60
2023/10/01 10:03:36;;;;;;;;;13.60;11.40;;;;;-143.00;100.00;60422.56;5093676;27;45502;-60
2023/10/01 10:06:09;;;;;;;;;10.40;10.20;;;;;-143.00;100.00;60422.56;5075720;27;46156;-60
2023/10/01 10:08:37;;;;;;;;;12.20;11.20;;;;;-143.00;100.00;60422.56;5093834;27;45362;-60
2023/10/01 10:11:07;;;;;;;;;12.00;11.20;;;;;-143.00;100.00;60422.56;5093905;27;45364;-60
2023/10/01 10:13:46;;;;;;;;;12.20;12.20;;;;;-143.00;100.00;60422.56;5094027;27;45654;-60
2023/10/01 10:16:35;;;;;;;;;14.40;13.00;;;;;-143.00;100.00;60422.56;5073987;28;45359;-60
2023/10/01 10:19:20;;;;;;;;;19.80;15.60;;;;;-143.00;100.00;60422.56;5075614;28;45359;-60
2023/10/01 10:24:36;;;;;;;;;14.40;12.00;;;;;-143.00;100.00;60422.56;5076983;28;45347;-60
2023/10/01 10:27:15;;;;;;;;;13.40;10.20;;;;;-143.00;100.00;60422.56;5076737;28;45400;-60
2023/10/01 10:29:46;;;;;;;;;9.80;8.40;;;;;-143.00;100.00;60422.56;5077397;28;45397;-60
2023/10/01 10:32:24;;;;;;;;;14.00;14.00;;;;;-143.00;100.00;60422.56;5090473;27;45363;-60
2023/10/01 10:35:04;;;;;;;;;12.60;12.20;;;;;-143.00;100.00;60422.56;5097516;27;45443;-60
2023/10/01 10:37:45;;;;;;;;;12.60;11.80;;;;;-143.00;100.00;60422.56;5078561;27;45443;-60
2023/10/01 10:42:57;;;;;;;;;19.00;13.20;;;;;-143.00;100.00;60422.56;5096885;27;45532;-60
2023/10/01 10:45:26;;;;;;;;;11.60;9.60;;;;;-143.00;100.00;60422.56;5078744;27;47253;-60
2023/10/01 10:48:04;;;;;;;;;15.20;11.00;;;;;-143.00;100.00;60422.56;5097139;27;45372;-60
2023/10/01 10:50:58;;;;;;;;;10.00;10.00;;;;;-143.00;100.00;60422.56;5097096;27;45586;-60
2023/10/01 10:53:25;;;;;;;;;11.80;11.40;;;;;-143.00;100.00;60422.56;5096861;27;45405;-60
2023/10/01 10:56:04;;;;;;;;;8.80;8.00;;;;;-143.00;100.00;60422.56;5097483;27;45524;-60
2023/10/01 10:58:39;;;;;;;;;13.00;13.00;;;;;-143.00;100.00;60422.56;5097001;27;45475;-60
2023/10/01 11:01:20;;;;;;;;;14.20;12.40;;;;;-143.00;100.00;60422.56;5097442;27;45378;-60
2023/10/01 11:03:57;;;;;;;;;16.60;12.40;;;;;-143.00;100.00;60422.56;5096642;27;45427;-60
2023/10/01 11:06:39;;;;;;;;;15.60;10.00;;;;;-143.00;100.00;60422.56;5096720;27;45400;-60
2023/10/01 11:09:26;;;;;;;;;11.20;10.80;;;;;-143.00;100.00;60422.56;5097139;27;45395;-60
2023/10/01 11:12:00;;;;;;;;;13.60;11.00;;;;;-143.00;100.00;60422.56;5096387;27;45416;-60
2023/10/01 11:14:26;;;;;;;;;10.80;10.60;;;;;-143.00;100.00;60422.56;5078277;27;45484;-60
2023/10/01 11:16:51;;;;;;;;;12.00;10.00;;;;;-143.00;100.00;60422.56;5096341;27;45495;-60
2023/10/01 11:19:35;;;;;;;;;10.75;9.50;;;;;-143.00;100.00;60422.56;5096616;27;45471;-60
2023/10/01 11:22:04;;;;;;;;;15.20;13.00;;;;;-143.00;100.00;60422.56;5096402;27;45470;-60
2023/10/01 11:24:30;;;;;;;;;14.80;11.40;;;;;-143.00;100.00;60422.56;5096797;27;45616;-60
2023/10/01 11:27:15;;;;;;;;;13.60;12.00;;;;;-143.00;100.00;60422.56;5096097;27;45643;-60
2023/10/01 11:29:41;;;;;;;;;12.60;12.00;;;;;-143.00;100.00;60422.56;5096249;27;45506;-61
2023/10/01 11:32:07;;;;;;;;;14.00;13.00;;;;;-143.00;100.00;60422.56;5097167;27;45413;-61
2023/10/01 11:34:45;;;;;;;;;14.25;11.50;;;;;-143.00;100.00;60422.56;5096971;27;45437;-60
2023/10/01 11:37:18;;;;;;;;;9.20;8.60;;;;;-143.00;100.00;60422.56;5096703;27;45707;-60
2023/10/01 11:39:50;;;;;;;;;12.80;11.00;;;;;-143.00;100.00;60422.56;5078029;27;45584;-60
2023/10/01 11:42:35;;;;;;;;;8.20;7.60;;;;;-143.00;100.00;60422.56;5096570;27;45295;-60
2023/10/01 11:45:29;;;;;;;;;13.00;11.20;;;;;-143.00;100.00;60422.56;5079508;27;45465;-60
2023/10/01 11:48:19;;;;;;;;;13.40;11.40;;;;;-143.00;100.00;60422.56;5096600;27;46145;-60
2023/10/01 11:50:50;;;;;;;;;12.80;11.40;;;;;-143.00;100.00;60422.56;5095652;27;45521;-60
2023/10/01 11:53:16;;;;;;;;;10.20;10.00;;;;;-143.00;100.00;60422.56;5096470;27;45451;-60
2023/10/01 11:55:42;;;;;;;;;13.60;11.40;;;;;-143.00;100.00;60422.56;5096625;27;45500;-60
2023/10/01 11:58:07;;;;;;;;;13.00;11.25;;;;;-143.00;100.00;60422.56;5077227;27;46413;-60